Time;durP1;ratioP1;P1;durP2;ratioP2;P2;SDS_P1;SDS_P2;PMS_P1;PMS_P2;Temp;Humidity;BMP_temperature;BMP_pressure;BME280_temperature;BME280_humidity;BME280_pressure;Samples;Min_cycle;Max_cycle;Signal;HPM_P1;HPM_P2
2022/06/27 00:00:15;;;;;;;3.07;2.63;;;20.30;99.90;;;;;;5138711;27;20524;-70
2022/06/27 00:02:42;;;;;;;2.83;2.63;;;20.30;99.90;;;;;;5138192;27;20547;-70
2022/06/27 00:05:10;;;;;;;2.70;2.43;;;20.40;99.90;;;;;;5138981;27;20547;-70
2022/06/27 00:07:39;;;;;;;1.80;1.70;;;20.40;99.90;;;;;;5138605;27;20527;-70
2022/06/27 00:10:07;;;;;;;1.77;1.67;;;20.50;99.90;;;;;;5138560;27;20443;-70
2022/06/27 00:12:34;;;;;;;1.47;1.40;;;20.50;99.90;;;;;;5138142;27;20571;-70
2022/06/27 00:15:01;;;;;;;1.37;1.27;;;20.50;99.90;;;;;;5138451;27;20552;-71
2022/06/27 00:17:28;;;;;;;1.77;1.07;;;20.50;99.90;;;;;;5138410;27;20498;-70
2022/06/27 00:19:55;;;;;;;0.87;0.87;;;20.50;99.90;;;;;;5138329;27;20436;-70
2022/06/27 00:22:22;;;;;;;1.93;1.00;;;20.40;99.90;;;;;;5138026;27;20528;-70
2022/06/27 00:24:51;;;;;;;1.70;1.00;;;20.40;99.90;;;;;;5138319;27;20874;-70
2022/06/27 00:27:17;;;;;;;1.50;1.40;;;20.40;99.90;;;;;;5138186;27;20536;-70
2022/06/27 00:29:44;;;;;;;1.13;1.10;;;20.40;99.90;;;;;;5137869;27;20531;-71
2022/06/27 00:32:11;;;;;;;0.90;0.90;;;20.30;99.90;;;;;;5137816;27;20590;-71
2022/06/27 00:34:38;;;;;;;0.90;0.90;;;20.20;99.90;;;;;;5138163;27;20532;-70
2022/06/27 00:37:05;;;;;;;1.80;1.40;;;20.20;99.90;;;;;;5138258;27;20527;-70
2022/06/27 00:39:32;;;;;;;3.50;0.83;;;20.20;99.90;;;;;;5137972;27;20945;-70
2022/06/27 00:42:01;;;;;;;2.20;1.00;;;20.10;99.90;;;;;;5137885;27;20438;-71
2022/06/27 00:44:32;;;;;;;1.40;1.03;;;20.00;99.90;;;;;;5137699;27;20471;-70
2022/06/27 00:47:00;;;;;;;2.30;1.27;;;20.00;99.90;;;;;;5137844;27;20522;-70
2022/06/27 00:49:27;;;;;;;2.93;1.40;;;19.90;99.90;;;;;;5137811;27;20523;-70
2022/06/27 00:51:54;;;;;;;3.50;1.70;;;19.80;99.90;;;;;;5137655;27;20479;-70
2022/06/27 00:54:22;;;;;;;1.90;1.60;;;19.70;99.90;;;;;;5137473;27;20566;-71
2022/06/27 00:56:50;;;;;;;2.37;1.40;;;19.50;99.90;;;;;;5137858;27;20788;-70
2022/06/27 00:59:18;;;;;;;4.27;1.40;;;19.40;99.90;;;;;;5137588;27;20523;-71
2022/06/27 01:01:45;;;;;;;3.17;1.60;;;19.40;99.90;;;;;;5137067;27;20527;-70
2022/06/27 01:04:12;;;;;;;3.47;1.50;;;19.40;99.90;;;;;;5137348;27;20817;-70
2022/06/27 01:06:39;;;;;;;2.00;1.33;;;19.30;99.90;;;;;;5137459;27;20530;-70
2022/06/27 01:09:06;;;;;;;1.92;1.70;;;19.10;99.90;;;;;;5137359;27;20529;-70
2022/06/27 01:11:33;;;;;;;5.20;1.63;;;18.90;99.90;;;;;;5137323;27;20573;-70
2022/06/27 01:14:01;;;;;;;2.72;1.73;;;18.50;99.90;;;;;;5137193;27;20317;-70
2022/06/27 01:16:29;;;;;;;1.70;1.60;;;18.30;99.90;;;;;;5137307;27;20236;-70
2022/06/27 01:18:56;;;;;;;3.30;1.83;;;18.10;99.90;;;;;;5137289;27;20569;-70
2022/06/27 01:21:24;;;;;;;1.85;1.75;;;18.10;99.90;;;;;;5137193;27;20292;-70
2022/06/27 01:23:53;;;;;;;3.08;1.90;;;18.20;99.90;;;;;;5136716;27;20312;-70
2022/06/27 01:26:21;;;;;;;2.22;1.77;;;18.20;99.90;;;;;;5137091;27;20205;-70
2022/06/27 01:28:48;;;;;;;1.60;1.50;;;18.20;99.90;;;;;;5136898;27;20207;-70
2022/06/27 01:31:17;;;;;;;3.03;1.70;;;18.20;99.90;;;;;;5136799;27;20308;-70
2022/06/27 01:33:44;;;;;;;1.60;1.50;;;18.10;99.90;;;;;;5136551;27;20567;-70
2022/06/27 01:38:57;;;;;;;2.35;1.63;;;18.00;99.90;;;;;;5136940;27;20195;-70
2022/06/27 01:41:24;;;;;;;1.85;1.40;;;17.90;99.90;;;;;;5136817;27;20287;-70
2022/06/27 01:43:50;;;;;;;3.53;1.35;;;17.90;99.90;;;;;;5136274;27;20720;-70
2022/06/27 01:46:18;;;;;;;2.10;1.42;;;17.90;99.90;;;;;;5136664;27;20291;-70
2022/06/27 01:48:45;;;;;;;1.70;1.60;;;17.90;99.90;;;;;;5136545;27;20205;-70
2022/06/27 01:51:13;;;;;;;2.67;1.50;;;18.10;99.90;;;;;;5136554;27;20647;-70
2022/06/27 01:53:41;;;;;;;2.13;1.40;;;18.20;99.90;;;;;;5135935;27;20783;-70
2022/06/27 01:56:09;;;;;;;1.35;1.25;;;18.20;99.90;;;;;;5136515;27;20292;-70
2022/06/27 01:58:37;;;;;;;1.27;1.20;;;18.40;99.90;;;;;;5136342;27;20265;-70
2022/06/27 02:01:05;;;;;;;1.52;1.42;;;18.40;99.90;;;;;;5136316;27;20288;-70
2022/06/27 02:03:33;;;;;;;1.77;1.67;;;18.60;99.90;;;;;;5136167;27;20311;-70
2022/06/27 02:06:00;;;;;;;1.00;1.00;;;18.60;99.90;;;;;;5136204;27;20583;-70
2022/06/27 02:08:28;;;;;;;1.10;1.00;;;18.70;99.90;;;;;;5136217;27;20629;-70
2022/06/27 02:10:56;;;;;;;1.17;1.08;;;18.90;99.90;;;;;;5136166;27;20202;-70
2022/06/27 02:13:25;;;;;;;1.10;1.10;;;19.00;99.90;;;;;;5135072;27;20312;-70
2022/06/27 02:16:06;;;;;;;1.10;1.00;;;19.10;99.90;;;;;;5135872;27;20531;-70
2022/06/27 02:18:34;;;;;;;1.17;1.17;;;19.20;99.90;;;;;;5135831;27;20287;-70
2022/06/27 02:21:01;;;;;;;1.55;1.40;;;19.20;99.90;;;;;;5135814;27;20996;-70
2022/06/27 02:23:28;;;;;;;1.40;1.30;;;19.30;99.90;;;;;;5135560;27;20314;-70
2022/06/27 02:25:56;;;;;;;1.27;1.17;;;19.40;99.90;;;;;;5135954;27;20527;-70
2022/06/27 02:28:26;;;;;;;1.10;1.10;;;19.40;99.90;;;;;;5135773;27;20468;-70
2022/06/27 02:30:54;;;;;;;1.17;1.17;;;19.50;99.90;;;;;;5135811;27;20791;-70
2022/06/27 02:33:21;;;;;;;1.60;1.50;;;19.50;99.90;;;;;;5135503;27;20562;-70
2022/06/27 02:35:50;;;;;;;2.10;1.43;;;19.50;99.90;;;;;;5135573;27;20528;-70
2022/06/27 02:38:19;;;;;;;1.30;1.30;;;19.50;99.90;;;;;;5135649;27;20515;-70
2022/06/27 02:40:48;;;;;;;3.00;1.30;;;19.50;99.90;;;;;;5135558;27;20523;-70
2022/06/27 02:43:17;;;;;;;1.30;1.20;;;19.50;99.90;;;;;;5135379;27;20559;-70
2022/06/27 02:45:46;;;;;;;1.40;1.30;;;19.50;99.90;;;;;;5135534;27;20474;-70
2022/06/27 02:48:15;;;;;;;1.93;1.30;;;19.40;99.90;;;;;;5135275;27;20474;-70
2022/06/27 02:50:44;;;;;;;1.30;1.20;;;19.40;99.90;;;;;;5135432;27;20526;-70
2022/06/27 02:53:14;;;;;;;1.23;1.00;;;19.50;99.90;;;;;;5134776;27;20574;-70
2022/06/27 02:55:42;;;;;;;1.17;1.10;;;19.50;99.90;;;;;;5135343;27;20546;-70
2022/06/27 02:58:13;;;;;;;2.37;1.20;;;19.50;99.90;;;;;;5135856;27;20779;-70
2022/06/27 03:00:41;;;;;;;2.97;1.23;;;19.50;99.90;;;;;;5135188;27;20801;-70
2022/06/27 03:03:13;;;;;;;1.37;1.30;;;19.50;99.90;;;;;;5134872;27;20487;-70
2022/06/27 03:05:55;;;;;;;0.90;0.90;;;19.40;99.90;;;;;;5134920;27;20629;-70
2022/06/27 03:08:22;;;;;;;2.63;1.47;;;19.40;99.90;;;;;;5134948;27;20928;-70
2022/06/27 03:10:49;;;;;;;2.60;1.40;;;19.40;99.90;;;;;;5135048;27;20526;-70
2022/06/27 03:13:16;;;;;;;1.30;1.20;;;19.40;99.90;;;;;;5134444;27;21062;-70
2022/06/27 03:15:43;;;;;;;1.45;1.35;;;19.30;99.90;;;;;;5134781;27;20482;-70
2022/06/27 03:18:14;;;;;;;1.40;1.30;;;19.20;99.90;;;;;;5134964;27;20215;-70
2022/06/27 03:20:41;;;;;;;1.10;1.10;;;19.20;99.90;;;;;;5135459;27;20223;-70
2022/06/27 03:23:08;;;;;;;1.10;1.10;;;19.20;99.90;;;;;;5134723;27;20545;-70
2022/06/27 03:25:35;;;;;;;1.23;1.20;;;19.20;99.90;;;;;;5134580;27;20246;-70
2022/06/27 03:28:01;;;;;;;1.40;1.30;;;19.20;99.90;;;;;;5134813;27;20461;-70
2022/06/27 03:30:28;;;;;;;1.60;1.50;;;19.10;99.90;;;;;;5134841;27;20293;-70
2022/06/27 03:32:56;;;;;;;1.90;1.60;;;19.10;99.90;;;;;;5134420;27;20507;-70
2022/06/27 03:35:24;;;;;;;2.67;2.43;;;19.20;99.90;;;;;;5134475;27;20530;-70
2022/06/27 03:37:51;;;;;;;2.30;1.83;;;19.20;99.90;;;;;;5134563;27;20525;-70
2022/06/27 03:40:18;;;;;;;1.43;1.33;;;19.30;99.90;;;;;;5134686;27;20530;-70
2022/06/27 03:42:45;;;;;;;1.50;1.40;;;19.30;99.90;;;;;;5134256;27;20531;-70
2022/06/27 03:45:13;;;;;;;1.50;1.40;;;19.30;99.90;;;;;;5134657;27;20887;-70
2022/06/27 03:47:48;;;;;;;1.83;1.73;;;19.40;99.90;;;;;;5134598;27;20297;-70
2022/06/27 03:50:14;;;;;;;1.80;1.70;;;19.30;99.90;;;;;;5134347;27;20202;-70
2022/06/27 03:52:42;;;;;;;3.87;1.90;;;19.30;99.90;;;;;;5134009;27;20483;-70
2022/06/27 03:55:10;;;;;;;2.50;2.30;;;19.20;99.90;;;;;;5134609;27;20527;-70
2022/06/27 03:57:37;;;;;;;3.15;2.10;;;19.20;99.90;;;;;;5134490;27;20285;-70
2022/06/27 04:00:08;;;;;;;2.15;1.95;;;19.20;99.90;;;;;;5134398;27;20296;-70
2022/06/27 04:02:35;;;;;;;3.08;2.10;;;19.10;99.90;;;;;;5133976;27;20236;-70
2022/06/27 04:05:02;;;;;;;2.40;2.20;;;18.90;99.90;;;;;;5134495;27;20265;-70
2022/06/27 04:07:29;;;;;;;4.38;2.38;;;18.80;99.90;;;;;;5134428;27;20232;-70
2022/06/27 04:09:57;;;;;;;2.83;2.08;;;18.60;99.90;;;;;;5134387;27;20304;-70
2022/06/27 04:12:24;;;;;;;2.22;1.95;;;18.70;99.90;;;;;;5134030;27;20653;-69
2022/06/27 04:14:52;;;;;;;1.80;1.70;;;18.80;99.90;;;;;;5134354;27;20284;-69
2022/06/27 04:17:19;;;;;;;2.20;2.00;;;18.90;99.90;;;;;;5134673;27;20306;-69
2022/06/27 04:19:46;;;;;;;2.67;2.38;;;18.70;99.90;;;;;;5134319;27;20288;-70
2022/06/27 04:22:12;;;;;;;2.95;2.00;;;18.70;99.90;;;;;;5134015;27;20291;-69
2022/06/27 04:24:41;;;;;;;2.88;2.30;;;18.70;99.90;;;;;;5134296;27;20201;-70
2022/06/27 04:27:09;;;;;;;2.80;2.50;;;18.80;99.90;;;;;;5134162;27;20205;-70
2022/06/27 04:29:36;;;;;;;3.25;2.63;;;18.90;99.90;;;;;;5134205;27;20438;-70
2022/06/27 04:32:04;;;;;;;3.45;2.72;;;18.90;99.90;;;;;;5134151;27;20301;-70
2022/06/27 04:34:30;;;;;;;2.40;2.20;;;19.00;99.90;;;;;;5134142;27;20222;-70
2022/06/27 04:36:58;;;;;;;2.87;2.60;;;19.00;99.90;;;;;;5134665;27;20876;-70
2022/06/27 04:39:25;;;;;;;3.67;2.70;;;19.10;99.90;;;;;;5137918;27;20453;-70
2022/06/27 04:41:52;;;;;;;2.30;2.10;;;19.20;99.90;;;;;;5137691;27;20439;-70
2022/06/27 04:44:20;;;;;;;2.40;2.30;;;19.30;99.90;;;;;;5137767;27;20463;-70
2022/06/27 04:46:48;;;;;;;2.80;2.65;;;19.20;99.90;;;;;;5137698;27;20993;-70
2022/06/27 04:49:15;;;;;;;3.15;2.80;;;19.00;99.90;;;;;;5137816;27;20206;-70
2022/06/27 04:51:43;;;;;;;2.60;2.40;;;18.80;99.90;;;;;;5137766;27;20227;-70
2022/06/27 04:54:10;;;;;;;2.50;2.30;;;18.90;99.90;;;;;;5137057;27;20224;-70
2022/06/27 04:56:41;;;;;;;2.80;2.60;;;18.90;99.90;;;;;;5137396;27;20196;-70
2022/06/27 04:59:08;;;;;;;3.50;2.40;;;19.10;99.90;;;;;;5137689;27;20251;-70
2022/06/27 05:01:37;;;;;;;2.20;2.10;;;19.20;99.90;;;;;;5137459;27;20663;-70
2022/06/27 05:04:04;;;;;;;4.25;2.50;;;19.20;99.90;;;;;;5137369;27;20263;-70
2022/06/27 05:06:31;;;;;;;2.43;2.33;;;19.20;99.90;;;;;;5137459;27;20217;-70
2022/06/27 05:08:58;;;;;;;2.58;2.15;;;19.20;99.90;;;;;;5137443;27;20538;-71
2022/06/27 05:11:25;;;;;;;4.10;3.70;;;19.30;99.90;;;;;;5137401;27;20289;-70
2022/06/27 05:13:52;;;;;;;3.63;3.33;;;19.40;99.90;;;;;;5136761;27;21060;-70
2022/06/27 05:16:19;;;;;;;2.30;2.10;;;19.50;99.90;;;;;;5137487;27;20437;-70
2022/06/27 05:18:47;;;;;;;6.73;2.70;;;19.60;99.90;;;;;;5137181;27;20527;-70
2022/06/27 05:21:14;;;;;;;2.90;2.60;;;19.70;99.90;;;;;;5137149;27;20998;-70
2022/06/27 05:23:41;;;;;;;2.77;2.57;;;19.70;99.90;;;;;;5136676;27;20552;-70
2022/06/27 05:26:08;;;;;;;2.30;2.10;;;19.80;99.90;;;;;;5136922;27;20527;-70
2022/06/27 05:28:35;;;;;;;5.57;5.00;;;19.80;99.90;;;;;;5136909;27;20954;-70
2022/06/27 05:31:02;;;;;;;2.20;2.10;;;19.80;99.90;;;;;;5136935;27;20552;-70
2022/06/27 05:33:29;;;;;;;2.33;2.23;;;19.90;99.90;;;;;;5136532;27;20904;-70
2022/06/27 05:35:57;;;;;;;1.93;1.83;;;19.90;99.90;;;;;;5136943;27;20455;-71
2022/06/27 05:38:24;;;;;;;2.27;2.07;;;19.90;99.90;;;;;;5136708;27;20527;-70
2022/06/27 05:40:50;;;;;;;2.60;2.30;;;20.00;99.90;;;;;;5136722;27;20536;-70
2022/06/27 05:43:18;;;;;;;2.50;2.40;;;19.90;99.90;;;;;;5136508;27;20504;-70
2022/06/27 05:45:45;;;;;;;2.50;2.30;;;19.90;99.90;;;;;;5136804;27;20524;-71
2022/06/27 05:48:12;;;;;;;2.90;2.47;;;20.00;99.90;;;;;;5136639;27;20474;-70
2022/06/27 05:50:39;;;;;;;2.60;2.40;;;20.00;99.90;;;;;;5137101;27;20436;-70
2022/06/27 05:53:07;;;;;;;2.40;2.03;;;20.00;99.90;;;;;;5136094;27;20571;-70
2022/06/27 05:55:35;;;;;;;2.63;2.47;;;19.80;99.90;;;;;;5136377;27;20434;-70
2022/06/27 05:58:03;;;;;;;3.23;2.90;;;19.70;99.90;;;;;;5136311;27;20541;-71
2022/06/27 06:00:31;;;;;;;2.37;2.27;;;19.80;99.90;;;;;;5136222;27;20529;-70
2022/06/27 06:02:59;;;;;;;2.80;2.60;;;19.90;99.90;;;;;;5136037;27;20482;-71
2022/06/27 06:05:26;;;;;;;3.40;2.63;;;19.90;99.90;;;;;;5136101;27;20444;-70
2022/06/27 06:07:53;;;;;;;3.57;2.57;;;19.90;99.90;;;;;;5136103;27;20862;-70
2022/06/27 06:10:21;;;;;;;3.93;2.87;;;19.80;99.90;;;;;;5136079;27;21020;-70
2022/06/27 06:12:49;;;;;;;2.73;2.50;;;19.90;99.90;;;;;;5135813;27;20487;-71
2022/06/27 06:15:16;;;;;;;2.63;2.43;;;20.00;99.90;;;;;;5135838;27;20535;-70
2022/06/27 06:17:43;;;;;;;2.33;1.93;;;20.10;99.90;;;;;;5135970;27;20448;-70
2022/06/27 06:20:11;;;;;;;2.30;2.00;;;20.20;99.90;;;;;;5136064;27;20866;-71
2022/06/27 06:22:38;;;;;;;3.17;2.43;;;20.10;99.90;;;;;;5135688;27;20887;-70
2022/06/27 06:25:06;;;;;;;2.10;2.00;;;20.00;99.90;;;;;;5136022;27;20444;-70
2022/06/27 06:27:35;;;;;;;2.30;2.10;;;20.00;99.90;;;;;;5135852;27;20531;-70
2022/06/27 06:30:02;;;;;;;3.33;2.20;;;20.00;99.90;;;;;;5135795;27;20446;-70
2022/06/27 06:32:29;;;;;;;2.97;2.30;;;19.90;99.90;;;;;;5135452;27;20469;-70
2022/06/27 06:34:57;;;;;;;2.30;2.10;;;19.90;99.90;;;;;;5135832;27;20447;-70
2022/06/27 06:37:23;;;;;;;1.90;1.80;;;20.00;99.90;;;;;;5135598;27;20865;-70
2022/06/27 06:39:50;;;;;;;1.80;1.70;;;20.20;99.90;;;;;;5135646;27;20436;-70
2022/06/27 06:42:18;;;;;;;4.00;2.00;;;20.20;99.90;;;;;;5135290;27;20998;-71
2022/06/27 06:44:46;;;;;;;2.60;2.10;;;20.10;99.90;;;;;;5135561;27;20433;-70
2022/06/27 06:47:14;;;;;;;5.93;2.20;;;19.90;99.90;;;;;;5135503;27;20504;-70
2022/06/27 06:49:45;;;;;;;1.80;1.70;;;19.80;99.90;;;;;;5135947;27;20850;-70
2022/06/27 06:52:12;;;;;;;1.80;1.70;;;19.90;99.90;;;;;;5135060;27;20448;-72
2022/06/27 06:54:40;;;;;;;1.97;1.87;;;19.90;99.90;;;;;;5135130;27;21060;-70
2022/06/27 06:57:06;;;;;;;2.30;1.97;;;19.80;99.90;;;;;;5135262;27;20445;-70
2022/06/27 06:59:33;;;;;;;1.70;1.60;;;19.90;99.90;;;;;;5134715;27;20920;-70
2022/06/27 07:02:03;;;;;;;2.30;2.20;;;19.90;99.90;;;;;;5135238;27;20528;-70
2022/06/27 07:04:30;;;;;;;2.30;2.20;;;20.30;99.90;;;;;;5135359;27;20978;-70
2022/06/27 07:06:57;;;;;;;2.90;1.70;;;20.60;99.90;;;;;;5135178;27;20457;-70
2022/06/27 07:09:24;;;;;;;3.10;2.00;;;20.90;99.90;;;;;;5135048;27;20490;-70
2022/06/27 07:11:51;;;;;;;1.80;1.70;;;20.90;99.90;;;;;;5135062;27;20543;-70
2022/06/27 07:14:19;;;;;;;1.80;1.70;;;21.00;99.90;;;;;;5134795;27;20813;-70
2022/06/27 07:16:46;;;;;;;2.00;1.90;;;21.00;99.90;;;;;;5134874;27;21000;-70
2022/06/27 07:19:15;;;;;;;2.10;2.00;;;20.90;99.90;;;;;;5134917;27;20437;-70
2022/06/27 07:21:42;;;;;;;1.97;1.87;;;20.90;99.90;;;;;;5134971;27;20537;-70
2022/06/27 07:24:09;;;;;;;2.20;2.00;;;20.80;99.90;;;;;;5134397;27;20548;-70
2022/06/27 07:26:36;;;;;;;1.77;1.67;;;20.60;99.90;;;;;;5134585;27;20949;-70
2022/06/27 07:29:05;;;;;;;1.87;1.60;;;20.60;99.90;;;;;;5134811;27;20440;-70
2022/06/27 07:31:32;;;;;;;1.97;1.87;;;20.40;99.90;;;;;;5134669;27;20443;-70
2022/06/27 07:34:01;;;;;;;2.07;1.97;;;20.20;99.90;;;;;;5134479;27;20572;-70
2022/06/27 07:36:32;;;;;;;1.83;1.73;;;20.10;99.90;;;;;;5134636;27;20443;-70
2022/06/27 07:38:59;;;;;;;1.80;1.70;;;20.20;99.90;;;;;;5134460;27;20945;-70
2022/06/27 07:41:30;;;;;;;1.53;1.40;;;20.30;99.90;;;;;;5134712;27;20480;-70
2022/06/27 07:43:57;;;;;;;1.77;1.67;;;20.40;99.90;;;;;;5134503;27;20880;-70
2022/06/27 07:46:24;;;;;;;1.70;1.60;;;20.50;99.90;;;;;;5134535;27;20452;-70
2022/06/27 07:48:51;;;;;;;1.50;1.47;;;20.60;99.90;;;;;;5134614;27;20444;-71
2022/06/27 07:51:20;;;;;;;1.40;1.30;;;20.50;99.90;;;;;;5134508;27;20442;-70
2022/06/27 07:53:50;;;;;;;1.37;1.37;;;20.70;99.90;;;;;;5133967;27;20485;-71
2022/06/27 07:56:18;;;;;;;1.83;1.73;;;20.80;99.90;;;;;;5134706;27;20485;-71
2022/06/27 07:58:46;;;;;;;2.63;1.50;;;21.00;99.90;;;;;;5134379;27;20442;-70
2022/06/27 08:01:15;;;;;;;1.70;1.60;;;21.10;99.90;;;;;;5134483;27;20535;-70
2022/06/27 08:03:44;;;;;;;1.60;1.60;;;21.00;99.90;;;;;;5134079;27;20468;-71
2022/06/27 08:06:15;;;;;;;1.70;1.60;;;20.80;99.90;;;;;;5134488;27;20806;-70
2022/06/27 08:08:43;;;;;;;2.03;1.57;;;20.70;99.90;;;;;;5135184;27;20789;-71
2022/06/27 08:11:14;;;;;;;1.77;1.67;;;21.00;99.90;;;;;;5134311;27;21031;-71
2022/06/27 08:13:43;;;;;;;1.30;1.30;;;21.10;99.90;;;;;;5137499;27;20530;-71
2022/06/27 08:16:14;;;;;;;1.30;1.30;;;21.40;99.90;;;;;;5138461;27;20441;-70
2022/06/27 08:18:41;;;;;;;1.67;1.57;;;21.40;99.90;;;;;;5138468;27;20803;-71
2022/06/27 08:21:10;;;;;;;1.63;1.53;;;21.60;99.90;;;;;;5138381;27;20441;-71
2022/06/27 08:23:38;;;;;;;1.80;1.50;;;21.50;99.90;;;;;;5138140;27;20556;-71
2022/06/27 08:26:07;;;;;;;1.27;1.17;;;21.60;99.90;;;;;;5138292;27;20533;-71
2022/06/27 08:28:37;;;;;;;3.33;1.40;;;21.60;99.90;;;;;;5138156;27;20467;-71
2022/06/27 08:31:04;;;;;;;1.40;1.30;;;21.60;99.90;;;;;;5138126;27;20945;-71
2022/06/27 08:33:32;;;;;;;1.30;1.20;;;22.10;99.90;;;;;;5137911;27;20555;-71
2022/06/27 08:35:59;;;;;;;1.30;1.30;;;22.30;99.90;;;;;;5138166;27;20431;-71
2022/06/27 08:38:26;;;;;;;1.37;1.27;;;22.50;99.90;;;;;;5138083;27;20517;-71
2022/06/27 08:40:54;;;;;;;1.50;1.40;;;22.50;99.90;;;;;;5138064;27;20853;-71
2022/06/27 08:43:21;;;;;;;1.77;1.13;;;22.20;99.90;;;;;;5137588;27;20549;-71
2022/06/27 08:45:51;;;;;;;2.13;2.03;;;22.20;99.90;;;;;;5137939;27;20521;-71
2022/06/27 08:48:19;;;;;;;2.50;2.30;;;22.50;99.90;;;;;;5137869;27;20452;-71
2022/06/27 08:50:48;;;;;;;1.70;1.60;;;22.60;99.90;;;;;;5137728;27;20455;-71
2022/06/27 08:53:17;;;;;;;1.20;1.20;;;22.50;99.90;;;;;;5137167;27;20570;-71
2022/06/27 08:55:46;;;;;;;2.03;1.80;;;22.40;99.90;;;;;;5137416;27;20931;-72
2022/06/27 08:58:13;;;;;;;1.57;1.47;;;22.20;99.90;;;;;;5137735;27;20441;-71
2022/06/27 09:00:45;;;;;;;1.57;1.47;;;22.30;99.90;;;;;;5137584;27;20855;-71
2022/06/27 09:03:14;;;;;;;1.63;1.53;;;22.20;99.90;;;;;;5137117;27;20472;-71
2022/06/27 09:05:42;;;;;;;2.80;1.57;;;21.90;99.90;;;;;;5137638;27;20529;-71
2022/06/27 09:08:09;;;;;;;2.20;2.00;;;21.80;99.90;;;;;;5137475;27;20478;-73
2022/06/27 09:10:39;;;;;;;1.80;1.70;;;21.70;99.90;;;;;;5137432;27;20446;-71
2022/06/27 09:13:08;;;;;;;2.07;1.80;;;21.60;99.90;;;;;;5136977;27;20461;-71
2022/06/27 09:15:49;;;;;;;1.60;1.60;;;21.40;99.90;;;;;;5137337;27;20437;-71
2022/06/27 09:18:20;;;;;;;1.80;1.70;;;21.30;99.90;;;;;;5137100;27;20524;-71
2022/06/27 09:20:51;;;;;;;1.77;1.70;;;21.20;99.90;;;;;;5137029;27;20524;-71
2022/06/27 09:23:40;;;;;;;1.40;1.40;;;21.20;99.90;;;;;;5136549;27;20504;-71
2022/06/27 09:26:19;;;;;;;1.90;1.80;;;21.20;99.90;;;;;;5137181;27;20803;-71
2022/06/27 09:28:50;;;;;;;2.00;1.90;;;21.30;99.90;;;;;;5137046;27;20490;-71
2022/06/27 09:31:35;;;;;;;2.13;1.97;;;21.30;99.90;;;;;;5137033;27;20776;-71
2022/06/27 09:34:09;;;;;;;1.93;1.83;;;21.30;99.90;;;;;;5136462;27;21037;-71
2022/06/27 09:36:39;;;;;;;2.50;2.30;;;21.30;99.90;;;;;;5136996;27;20469;-71
2022/06/27 09:39:10;;;;;;;2.10;2.00;;;21.40;99.90;;;;;;5136855;27;20859;-71
2022/06/27 09:41:38;;;;;;;2.67;2.57;;;21.40;99.90;;;;;;5136816;27;20488;-71
2022/06/27 09:44:10;;;;;;;2.97;2.77;;;21.40;99.90;;;;;;5136636;27;20492;-71
2022/06/27 09:46:42;;;;;;;2.20;2.00;;;21.30;99.90;;;;;;5136591;27;20475;-71
2022/06/27 09:49:14;;;;;;;3.10;2.47;;;21.40;99.90;;;;;;5136707;27;20507;-71
2022/06/27 09:51:41;;;;;;;2.43;2.33;;;21.40;99.90;;;;;;5136616;27;21003;-70
2022/06/27 09:54:11;;;;;;;3.40;3.20;;;21.90;99.90;;;;;;5136000;27;20855;-71
2022/06/27 09:56:39;;;;;;;2.97;2.70;;;22.60;99.90;;;;;;5136299;27;20924;-71
2022/06/27 09:59:08;;;;;;;2.30;2.20;;;22.50;99.90;;;;;;5136500;27;20533;-71
2022/06/27 10:01:36;;;;;;;2.73;2.63;;;22.20;99.90;;;;;;5136327;27;20529;-71
2022/06/27 10:04:04;;;;;;;2.50;2.40;;;22.10;99.90;;;;;;5136241;27;20458;-71
2022/06/27 10:06:34;;;;;;;2.37;2.27;;;22.30;99.90;;;;;;5136332;27;20875;-72
2022/06/27 10:09:02;;;;;;;2.40;2.20;;;23.40;99.90;;;;;;5136753;27;20478;-71
2022/06/27 10:11:29;;;;;;;2.33;2.23;;;24.50;99.90;;;;;;5136361;27;20449;-71
2022/06/27 10:14:19;;;;;;;2.90;2.70;;;24.90;99.90;;;;;;5136046;27;20488;-71
2022/06/27 10:16:55;;;;;;;2.67;2.47;;;23.90;99.90;;;;;;5136225;27;20522;-71
2022/06/27 10:19:23;;;;;;;3.63;3.33;;;23.20;99.90;;;;;;5136171;27;20518;-71
2022/06/27 10:21:52;;;;;;;3.03;2.93;;;23.00;99.90;;;;;;5136046;27;20507;-71
2022/06/27 10:24:43;;;;;;;3.13;2.93;;;22.50;99.90;;;;;;5135901;27;20837;-71
2022/06/27 10:27:30;;;;;;;3.07;2.93;;;22.30;99.90;;;;;;5136022;27;20867;-71
2022/06/27 10:29:59;;;;;;;3.60;3.40;;;22.30;99.90;;;;;;5135684;27;20935;-71
2022/06/27 10:32:41;;;;;;;4.53;4.23;;;22.10;99.90;;;;;;5135615;27;20441;-71
2022/06/27 10:35:26;;;;;;;3.90;3.70;;;21.90;99.90;;;;;;5135377;27;20470;-70
2022/06/27 10:37:54;;;;;;;3.93;3.70;;;21.70;99.90;;;;;;5135711;27;20442;-71
2022/06/27 10:40:53;;;;;;;3.93;3.63;;;21.60;99.90;;;;;;5135699;27;20438;-71
2022/06/27 10:43:47;;;;;;;4.33;4.13;;;21.60;99.90;;;;;;5135325;27;20528;-71
2022/06/27 10:46:52;;;;;;;4.20;3.90;;;21.50;99.90;;;;;;5135616;27;20430;-71
2022/06/27 10:49:29;;;;;;;5.50;5.00;;;21.60;99.90;;;;;;5135570;27;20466;-71
2022/06/27 10:52:32;;;;;;;4.80;4.50;;;21.70;99.90;;;;;;5135379;27;20532;-72
2022/06/27 10:55:01;;;;;;;4.03;3.77;;;21.80;99.90;;;;;;5135078;27;20470;-71
2022/06/27 10:57:45;;;;;;;3.70;3.50;;;21.80;99.90;;;;;;5135398;27;20438;-71
2022/06/27 11:00:36;;;;;;;4.10;3.90;;;21.80;99.90;;;;;;5135313;27;20435;-71
2022/06/27 11:03:04;;;;;;;4.43;4.17;;;21.70;99.90;;;;;;5134996;27;20537;-71
2022/06/27 11:05:32;;;;;;;4.30;4.00;;;21.80;99.90;;;;;;5135252;27;20528;-71
2022/06/27 11:07:59;;;;;;;3.80;3.60;;;21.70;99.90;;;;;;5135172;27;20473;-71
2022/06/27 11:10:27;;;;;;;5.17;4.10;;;21.70;99.90;;;;;;5135106;27;20441;-71
2022/06/27 11:12:53;;;;;;;4.23;3.83;;;21.80;99.90;;;;;;5134786;27;20462;-71
2022/06/27 11:15:20;;;;;;;3.50;3.30;;;21.90;99.90;;;;;;5135011;27;20570;-70
2022/06/27 11:17:48;;;;;;;3.73;3.50;;;21.90;99.90;;;;;;5135030;27;20449;-71
2022/06/27 11:20:25;;;;;;;4.67;4.13;;;22.00;99.90;;;;;;5134985;27;20533;-70
2022/06/27 11:22:55;;;;;;;4.47;4.07;;;22.00;99.90;;;;;;5134657;27;20462;-71
2022/06/27 11:25:24;;;;;;;4.20;3.90;;;22.00;99.90;;;;;;5135038;27;20509;-70
2022/06/27 11:27:54;;;;;;;3.90;3.70;;;21.90;99.90;;;;;;5134739;27;20446;-70
2022/06/27 11:33:33;;;;;;;5.50;5.00;;;21.70;99.90;;;;;;5126488;27;20496;-71
2022/06/27 11:36:01;;;;;;;4.80;4.37;;;21.80;99.90;;;;;;5134893;27;20548;-71
2022/06/27 11:38:30;;;;;;;4.17;3.87;;;21.80;99.90;;;;;;5134767;27;20861;-71
2022/06/27 11:41:02;;;;;;;4.13;3.93;;;21.80;99.90;;;;;;5134676;27;20442;-71
2022/06/27 11:43:52;;;;;;;3.80;3.60;;;21.70;99.90;;;;;;5134481;27;20473;-70
2022/06/27 11:46:33;;;;;;;3.80;3.27;;;21.70;99.90;;;;;;5134528;27;20443;-71
2022/06/27 11:49:07;;;;;;;3.83;3.53;;;21.50;99.90;;;;;;5134636;27;20517;-71
2022/06/27 11:51:37;;;;;;;3.67;3.47;;;21.60;99.90;;;;;;5134569;27;20438;-70
2022/06/27 11:54:07;;;;;;;5.20;4.13;;;21.60;99.90;;;;;;5133981;27;20563;-70
2022/06/27 11:56:37;;;;;;;7.50;6.67;;;21.30;99.90;;;;;;5134456;27;20473;-71
2022/06/27 11:59:06;;;;;;;3.87;3.57;;;21.30;99.90;;;;;;5134270;27;20527;-70
2022/06/27 12:01:33;;;;;;;3.77;3.47;;;21.30;99.90;;;;;;5134195;27;20999;-71
2022/06/27 12:04:26;;;;;;;3.90;3.57;;;21.40;99.90;;;;;;5134287;27;20867;-71
2022/06/27 12:06:55;;;;;;;3.70;3.50;;;21.40;99.90;;;;;;5131207;27;20533;-71
2022/06/27 12:09:23;;;;;;;4.10;3.80;;;21.40;99.90;;;;;;5134400;27;20845;-70
2022/06/27 12:12:05;;;;;;;4.13;3.93;;;21.30;99.90;;;;;;5134370;27;20513;-71
2022/06/27 12:14:44;;;;;;;4.30;4.00;;;21.20;99.90;;;;;;5134823;27;20478;-71
2022/06/27 12:17:11;;;;;;;3.70;3.40;;;21.30;99.90;;;;;;5134356;27;20527;-70
2022/06/27 12:19:41;;;;;;;3.30;3.20;;;21.30;99.90;;;;;;5134298;27;20532;-70
2022/06/27 12:22:08;;;;;;;4.83;3.63;;;21.30;99.90;;;;;;5134041;27;20544;-71
2022/06/27 12:24:34;;;;;;;4.00;3.80;;;21.30;99.90;;;;;;5134217;27;20464;-70
2022/06/27 12:27:01;;;;;;;3.80;3.60;;;21.20;99.90;;;;;;5134243;27;20520;-70
2022/06/27 12:29:28;;;;;;;5.03;3.30;;;21.10;99.90;;;;;;5134134;27;20477;-71
2022/06/27 12:31:55;;;;;;;3.90;3.60;;;21.00;99.90;;;;;;5133900;27;20915;-70
2022/06/27 12:34:22;;;;;;;3.60;3.40;;;21.10;99.90;;;;;;5133554;27;21029;-71
2022/06/27 12:36:50;;;;;;;3.53;3.33;;;21.20;99.90;;;;;;5133932;27;20520;-71
2022/06/27 12:39:18;;;;;;;3.50;3.30;;;21.20;99.90;;;;;;5134161;27;20532;-71
2022/06/27 12:41:45;;;;;;;3.43;3.23;;;21.30;99.90;;;;;;5134092;27;20503;-71
2022/06/27 12:44:11;;;;;;;3.63;3.33;;;21.30;99.90;;;;;;5133932;27;20816;-71
2022/06/27 12:46:39;;;;;;;3.60;3.30;;;21.30;99.90;;;;;;5134488;27;20514;-70
2022/06/27 12:49:05;;;;;;;3.53;3.33;;;21.30;99.90;;;;;;5133979;27;20449;-70
2022/06/27 12:51:32;;;;;;;4.10;3.80;;;21.20;99.90;;;;;;5133788;27;20536;-70
2022/06/27 12:54:00;;;;;;;4.20;3.90;;;21.20;99.90;;;;;;5133504;27;20561;-70
2022/06/27 12:56:27;;;;;;;4.27;4.00;;;21.30;99.90;;;;;;5133710;27;20470;-71
2022/06/27 12:58:54;;;;;;;3.70;3.50;;;21.30;99.90;;;;;;5135927;27;20524;-70
2022/06/27 13:01:22;;;;;;;3.63;3.43;;;21.30;99.90;;;;;;5137616;27;20544;-70
2022/06/27 13:03:49;;;;;;;4.13;3.83;;;21.10;99.90;;;;;;5137044;27;20489;-70